createdAt,value
2022-12-12T00:01:22.590Z,100081.97
2022-12-12T00:03:55.153Z,100080.25
2022-12-12T00:06:25.140Z,100082.84
2022-12-12T00:08:54.853Z,100086.34
2022-12-12T00:11:25.391Z,100085.50
2022-12-12T00:13:55.562Z,100092.44
2022-12-12T00:16:25.673Z,100096.78
2022-12-12T00:18:57.999Z,100097.56
2022-12-12T00:21:29.897Z,100095.00
2022-12-12T00:23:59.954Z,100100.16
2022-12-12T00:26:31.762Z,100096.69
2022-12-12T00:29:02.167Z,100099.31
2022-12-12T00:31:32.236Z,100094.91
2022-12-12T00:34:04.581Z,100093.19
2022-12-12T00:36:34.883Z,100097.47
2022-12-12T00:39:04.642Z,100094.94
2022-12-12T00:41:34.400Z,100098.38
2022-12-12T00:44:03.964Z,100094.69
2022-12-12T00:46:33.653Z,100095.56
2022-12-12T00:49:06.640Z,100102.53
2022-12-12T00:51:36.275Z,100098.19
2022-12-12T00:54:05.976Z,100099.88
2022-12-12T00:56:35.610Z,100102.47
2022-12-12T00:59:06.053Z,100102.66
2022-12-12T01:01:37.138Z,100099.06
2022-12-12T01:04:10.726Z,100109.44
2022-12-12T01:06:40.539Z,100112.88
2022-12-12T01:09:10.318Z,100110.31
2022-12-12T01:11:39.930Z,100116.41
2022-12-12T01:14:10.019Z,100116.34
2022-12-12T01:16:39.604Z,100114.78
2022-12-12T01:19:11.793Z,100120.81
2022-12-12T01:21:41.453Z,100126.81
2022-12-12T01:24:11.106Z,100127.69
2022-12-12T01:26:40.872Z,100122.56
2022-12-12T01:29:10.702Z,100127.78
2022-12-12T01:31:40.309Z,100128.59
2022-12-12T01:34:12.574Z,100125.94
2022-12-12T01:36:42.568Z,100131.13
2022-12-12T01:39:12.112Z,100138.84
2022-12-12T01:41:41.686Z,100134.53
2022-12-12T01:44:40.693Z,100138.09
2022-12-12T01:47:13.317Z,100137.16
2022-12-12T01:49:44.067Z,100138.03
2022-12-12T01:52:16.137Z,100135.44
2022-12-12T01:54:48.106Z,100139.84
2022-12-12T01:57:21.019Z,100137.25
2022-12-12T01:59:50.776Z,100132.06
2022-12-12T02:02:23.011Z,100138.94
2022-12-12T02:04:52.790Z,100145.19
2022-12-12T02:07:22.331Z,100139.94
2022-12-12T02:09:52.920Z,100138.22
2022-12-12T02:12:22.521Z,100137.31
2022-12-12T02:14:54.897Z,100133.03
2022-12-12T02:18:03.528Z,100135.63
2022-12-12T02:20:56.300Z,100140.00
2022-12-12T02:23:55.794Z,100137.41
2022-12-12T02:26:59.363Z,100135.66
2022-12-12T02:29:58.703Z,100140.88
2022-12-12T02:32:38.079Z,100139.16
2022-12-12T02:35:15.065Z,100139.19
2022-12-12T02:37:53.579Z,100133.06
2022-12-12T02:40:27.126Z,100130.47
2022-12-12T02:43:01.513Z,100129.63
2022-12-12T02:45:36.521Z,100132.28
2022-12-12T02:48:14.048Z,100125.34
2022-12-12T02:50:45.251Z,100128.84
2022-12-12T02:53:14.951Z,100138.34
2022-12-12T02:55:44.606Z,100142.66
2022-12-12T02:58:14.832Z,100134.84
2022-12-12T03:01:11.096Z,100136.56
2022-12-12T03:04:00.722Z,100138.34
2022-12-12T03:06:53.819Z,100147.00
2022-12-12T03:09:31.561Z,100143.56
2022-12-12T03:12:08.201Z,100142.75
2022-12-12T03:14:45.051Z,100142.75
2022-12-12T03:17:18.595Z,100141.91
2022-12-12T03:19:56.380Z,100138.53
2022-12-12T03:22:29.871Z,100145.41
2022-12-12T03:25:04.885Z,100142.84
2022-12-12T03:27:37.335Z,100148.13
2022-12-12T03:30:09.567Z,100146.31
2022-12-12T03:32:43.326Z,100138.50
2022-12-12T03:35:19.508Z,100140.19
2022-12-12T03:37:51.785Z,100140.16
2022-12-12T03:40:25.837Z,100136.66
2022-12-12T03:43:00.473Z,100137.66
2022-12-12T03:45:33.618Z,100141.84
2022-12-12T03:48:08.259Z,100141.84
2022-12-12T03:50:43.582Z,100144.41
2022-12-12T03:53:15.031Z,100149.66
2022-12-12T03:55:47.995Z,100144.47
2022-12-12T03:58:21.245Z,100142.72
2022-12-12T04:00:52.925Z,100144.44
2022-12-12T04:03:26.452Z,100144.44
2022-12-12T04:06:15.251Z,100149.63
2022-12-12T04:09:05.219Z,100149.59
2022-12-12T04:12:07.671Z,100153.91
2022-12-12T04:14:55.757Z,100152.22
2022-12-12T04:17:31.357Z,100147.88
2022-12-12T04:20:17.272Z,100149.63
2022-12-12T04:23:08.759Z,100155.69
2022-12-12T04:26:00.114Z,100158.28
2022-12-12T04:28:30.723Z,100156.53
2022-12-12T04:31:05.370Z,100152.13
2022-12-12T04:33:42.215Z,100159.03
2022-12-12T04:36:12.978Z,100164.31
2022-12-12T04:38:45.623Z,100166.94
2022-12-12T04:41:17.616Z,100162.69
2022-12-12T04:43:49.133Z,100168.72
2022-12-12T04:46:20.992Z,100168.72
2022-12-12T04:48:54.232Z,100167.00
2022-12-12T04:51:28.374Z,100170.47
2022-12-12T04:54:05.885Z,100174.84
2022-12-12T04:56:38.602Z,100174.88
2022-12-12T04:59:09.465Z,100171.44
2022-12-12T05:01:52.623Z,100176.66
2022-12-12T05:04:27.642Z,100174.94
2022-12-12T05:07:00.891Z,100181.00
2022-12-12T05:09:33.303Z,100180.16
2022-12-12T05:12:02.896Z,100175.03
2022-12-12T05:14:32.999Z,100179.34
2022-12-12T05:17:06.519Z,100190.53
2022-12-12T05:19:36.187Z,100184.53
2022-12-12T05:22:05.916Z,100179.34
2022-12-12T05:24:40.529Z,100192.28
2022-12-12T05:27:10.110Z,100185.38
2022-12-12T05:29:39.662Z,100192.38
2022-12-12T05:32:09.318Z,100196.69
2022-12-12T05:34:38.879Z,100196.69
2022-12-12T05:37:08.477Z,100191.47
2022-12-12T05:39:40.665Z,100198.44
2022-12-12T05:42:10.986Z,100193.19
2022-12-12T05:44:40.720Z,100188.94
2022-12-12T05:47:10.411Z,100191.50
2022-12-12T05:49:40.097Z,100192.38
2022-12-12T05:52:09.907Z,100197.59
2022-12-12T05:54:42.894Z,100201.91
2022-12-12T05:57:12.591Z,100196.72
2022-12-12T05:59:42.110Z,100198.53
2022-12-12T06:02:11.820Z,100198.50
2022-12-12T06:04:41.574Z,100202.88
2022-12-12T06:07:11.677Z,100207.28
2022-12-12T06:09:43.885Z,100203.00
2022-12-12T06:12:13.529Z,100206.50
2022-12-12T06:14:43.407Z,100214.28
2022-12-12T06:17:12.941Z,100216.06
2022-12-12T06:19:42.513Z,100210.84
2022-12-12T06:22:12.069Z,100212.53
2022-12-12T06:24:44.277Z,100214.22
2022-12-12T06:27:13.905Z,100213.38
2022-12-12T06:29:43.627Z,100214.22
2022-12-12T06:32:13.321Z,100219.47
2022-12-12T06:34:43.202Z,100212.56
2022-12-12T06:37:17.205Z,100227.28
2022-12-12T06:39:50.150Z,100228.16
2022-12-12T06:42:19.771Z,100236.00
2022-12-12T06:44:49.373Z,100232.56
2022-12-12T06:47:18.983Z,100238.66
2022-12-12T06:49:48.556Z,100235.22
2022-12-12T06:52:18.266Z,100233.50
2022-12-12T06:54:50.695Z,100240.44
2022-12-12T06:57:20.372Z,100243.91
2022-12-12T06:59:52.901Z,100238.75
2022-12-12T07:02:29.320Z,100240.50
2022-12-12T07:05:00.004Z,100253.47
2022-12-12T07:07:29.609Z,100238.78
2022-12-12T07:10:01.842Z,100248.31
2022-12-12T07:12:31.555Z,100244.00
2022-12-12T07:15:01.137Z,100247.44
2022-12-12T07:17:30.774Z,100253.50
2022-12-12T07:20:00.350Z,100259.56
2022-12-12T07:22:30.032Z,100256.13
2022-12-12T07:25:02.257Z,100257.91
2022-12-12T07:27:31.875Z,100261.31
2022-12-12T07:30:01.438Z,100261.31
2022-12-12T07:32:31.090Z,100265.66
2022-12-12T07:35:00.748Z,100268.25
2022-12-12T07:37:30.429Z,100273.41
2022-12-12T07:40:02.596Z,100273.44
2022-12-12T07:42:32.281Z,100282.03
2022-12-12T07:45:01.849Z,100276.84
2022-12-12T07:47:31.487Z,100277.72
2022-12-12T07:50:01.173Z,100285.50
2022-12-12T07:52:31.019Z,100288.13
2022-12-12T07:55:03.227Z,100282.91
2022-12-12T07:57:33.455Z,100281.22
2022-12-12T08:00:03.111Z,100283.78
2022-12-12T08:02:41.807Z,100286.38
2022-12-12T08:05:12.549Z,100286.38
2022-12-12T08:07:42.554Z,100282.91
2022-12-12T08:10:15.091Z,100286.41
2022-12-12T08:12:44.742Z,100292.41
2022-12-12T08:15:18.640Z,100291.56
2022-12-12T08:17:48.355Z,100288.97
2022-12-12T08:20:19.184Z,100293.28
2022-12-12T08:22:48.766Z,100298.44
2022-12-12T08:25:21.171Z,100304.50
2022-12-12T08:27:50.794Z,100303.66
2022-12-12T08:30:20.503Z,100297.63
2022-12-12T08:32:50.114Z,100308.00
2022-12-12T08:35:19.815Z,100301.94
2022-12-12T08:37:49.398Z,100298.50
2022-12-12T08:40:21.615Z,100294.19
2022-12-12T08:42:51.326Z,100303.69
2022-12-12T08:45:20.925Z,100301.97
2022-12-12T08:47:50.618Z,100304.56
2022-12-12T08:50:20.230Z,100301.94
2022-12-12T08:52:49.750Z,100303.69
2022-12-12T08:55:21.908Z,100307.13
2022-12-12T08:57:51.554Z,100308.00
2022-12-12T09:00:21.632Z,100317.50
2022-12-12T09:02:51.345Z,100311.44
2022-12-12T09:05:21.059Z,100310.59
2022-12-12T09:07:50.707Z,100310.59
2022-12-12T09:10:23.133Z,100308.00
2022-12-12T09:12:52.757Z,100316.63
2022-12-12T09:15:22.771Z,100319.25
2022-12-12T09:17:52.412Z,100322.69
2022-12-12T09:20:22.524Z,100320.09
2022-12-12T09:22:52.158Z,100317.50
2022-12-12T09:25:24.942Z,100321.81
2022-12-12T09:27:54.715Z,100317.50
2022-12-12T09:30:24.332Z,100329.59
2022-12-12T09:32:54.083Z,100328.72
2022-12-12T09:35:23.715Z,100329.56
2022-12-12T09:37:53.323Z,100335.59
2022-12-12T09:40:30.652Z,100335.63
2022-12-12T09:43:03.032Z,100331.31
2022-12-12T09:45:33.285Z,100327.84
2022-12-12T09:48:04.967Z,100337.34
2022-12-12T09:50:37.647Z,100332.16
2022-12-12T09:53:09.621Z,100328.66
2022-12-12T09:55:46.263Z,100330.41
2022-12-12T09:58:21.138Z,100322.63
2022-12-12T10:00:52.356Z,100324.34
2022-12-12T10:03:28.320Z,100326.06
2022-12-12T10:06:35.954Z,100327.78
2022-12-12T10:09:03.801Z,100324.28
2022-12-12T10:11:54.921Z,100328.63
2022-12-12T10:14:30.579Z,100321.69
2022-12-12T10:17:00.899Z,100318.22
2022-12-12T10:19:32.808Z,100328.56
2022-12-12T10:22:05.982Z,100336.31
2022-12-12T10:24:40.535Z,100319.84
2022-12-12T10:27:15.953Z,100326.72
2022-12-12T10:29:50.370Z,100314.56
2022-12-12T10:32:29.843Z,100311.94
2022-12-12T10:35:16.910Z,100309.31
2022-12-12T10:37:56.153Z,100314.44
2022-12-12T10:40:38.711Z,100312.66
2022-12-12T10:43:13.987Z,100318.69
2022-12-12T10:45:57.690Z,100308.31
2022-12-12T10:48:27.376Z,100312.63
2022-12-12T10:51:00.915Z,100312.59
2022-12-12T10:53:30.963Z,100308.22
2022-12-12T10:56:03.848Z,100301.25
2022-12-12T10:58:42.215Z,100298.59
2022-12-12T11:01:15.556Z,100301.97
2022-12-12T11:03:48.152Z,100295.00
2022-12-12T11:06:21.734Z,100299.31
2022-12-12T11:08:59.580Z,100290.59
2022-12-12T11:11:30.930Z,100287.94
2022-12-12T11:14:06.246Z,100282.69
2022-12-12T11:16:44.425Z,100289.56
2022-12-12T11:19:21.122Z,100288.69
2022-12-12T11:21:51.118Z,100292.03
2022-12-12T11:24:22.083Z,100289.38
2022-12-12T11:26:54.805Z,100284.22
2022-12-12T11:29:36.357Z,100286.72
2022-12-12T11:32:06.629Z,100289.34
2022-12-12T11:34:38.058Z,100280.59
2022-12-12T11:37:07.769Z,100287.50
2022-12-12T11:39:42.267Z,100278.75
2022-12-12T11:42:21.766Z,100277.88
2022-12-12T11:45:00.845Z,100276.06
2022-12-12T11:47:35.934Z,100272.50
2022-12-12T11:50:19.744Z,100274.16
2022-12-12T11:52:50.383Z,100267.09
2022-12-12T11:55:21.379Z,100265.31
2022-12-12T11:58:03.818Z,100266.25
2022-12-12T12:00:42.214Z,100257.56
2022-12-12T12:03:25.907Z,100259.28
2022-12-12T12:06:05.027Z,100266.34
2022-12-12T12:08:48.453Z,100275.78
2022-12-12T12:11:24.658Z,100260.16
2022-12-12T12:14:11.130Z,100261.75
2022-12-12T12:16:49.866Z,100258.22
2022-12-12T12:19:23.944Z,100258.22
2022-12-12T12:22:00.809Z,100251.22
2022-12-12T12:24:55.768Z,100260.63
2022-12-12T12:27:28.806Z,100256.25
2022-12-12T12:30:15.011Z,100258.78
2022-12-12T12:32:57.295Z,100257.78
2022-12-12T12:35:32.486Z,100257.72
2022-12-12T12:38:13.598Z,100252.47
2022-12-12T12:40:52.675Z,100256.72
2022-12-12T12:43:46.415Z,100249.63
2022-12-12T12:46:20.406Z,100249.47
2022-12-12T12:48:53.867Z,100253.81
2022-12-12T12:51:27.574Z,100252.00
2022-12-12T12:54:02.911Z,100249.28
2022-12-12T12:56:34.104Z,100244.94
2022-12-12T12:59:06.823Z,100247.50
2022-12-12T13:01:39.667Z,100248.31
2022-12-12T13:04:17.840Z,100241.31
2022-12-12T13:06:51.161Z,100242.97
2022-12-12T13:09:36.059Z,100240.41
2022-12-12T13:12:08.339Z,100237.69
2022-12-12T13:14:42.679Z,100238.56
2022-12-12T13:17:19.519Z,100231.50
2022-12-12T13:19:53.567Z,100233.22
2022-12-12T13:22:30.875Z,100228.84
2022-12-12T13:25:03.916Z,100233.28
2022-12-12T13:27:36.587Z,100227.22
2022-12-12T13:30:09.746Z,100224.59
2022-12-12T13:33:05.733Z,100232.38
2022-12-12T13:35:42.517Z,100225.44
2022-12-12T13:38:20.508Z,100223.53
2022-12-12T13:40:58.484Z,100238.28
2022-12-12T13:43:31.918Z,100241.91
2022-12-12T13:46:01.931Z,100242.06
2022-12-12T13:48:46.981Z,100248.94
2022-12-12T13:51:44.199Z,100244.69
2022-12-12T13:55:05.180Z,100239.50
2022-12-12T13:57:34.885Z,100242.06
2022-12-12T14:00:17.427Z,100245.53
2022-12-12T14:02:49.988Z,100238.72
2022-12-12T14:05:26.437Z,100239.63
2022-12-12T14:08:04.540Z,100251.03
2022-12-12T14:10:36.751Z,100247.59
2022-12-12T14:13:20.545Z,100246.78
2022-12-12T14:15:52.527Z,100249.22
2022-12-12T14:18:29.754Z,100247.41
2022-12-12T14:21:03.388Z,100243.84
2022-12-12T14:23:36.912Z,100240.31
2022-12-12T14:26:52.890Z,100243.75
2022-12-12T14:29:30.075Z,100245.59
2022-12-12T14:32:14.919Z,100243.88
2022-12-12T14:34:50.964Z,100238.72
2022-12-12T14:37:35.515Z,100246.59
2022-12-12T14:40:18.174Z,100249.50
2022-12-12T14:43:19.679Z,100249.56
2022-12-12T14:45:56.998Z,100254.03
2022-12-12T14:48:28.888Z,100252.41
2022-12-12T14:51:10.741Z,100249.06
2022-12-12T14:53:49.550Z,100250.91
2022-12-12T14:56:25.090Z,100257.09
2022-12-12T14:59:00.513Z,100252.91
2022-12-12T15:01:34.383Z,100251.31
2022-12-12T15:04:06.260Z,100251.44
2022-12-12T15:06:38.386Z,100251.56
2022-12-12T15:09:16.755Z,100245.59
2022-12-12T15:11:51.193Z,100257.81
2022-12-12T15:14:23.515Z,100260.53
2022-12-12T15:16:56.785Z,100264.94
2022-12-12T15:19:29.525Z,100268.47
2022-12-12T15:21:59.389Z,100269.41
2022-12-12T15:24:31.140Z,100267.72
2022-12-12T15:27:03.408Z,100274.78
2022-12-12T15:29:34.842Z,100273.13
2022-12-12T15:32:06.899Z,100270.56
2022-12-12T15:34:41.636Z,100275.81
2022-12-12T15:37:29.705Z,100286.28
2022-12-12T15:40:14.392Z,100284.63
2022-12-12T15:42:49.459Z,100276.88
2022-12-12T15:45:23.387Z,100285.56
2022-12-12T15:47:54.794Z,100284.72
2022-12-12T15:50:26.710Z,100289.09
2022-12-12T15:53:09.178Z,100296.09
2022-12-12T15:55:39.030Z,100308.28
2022-12-12T15:58:29.217Z,100298.78
2022-12-12T16:01:06.765Z,100307.47
2022-12-12T16:03:36.851Z,100297.97
2022-12-12T16:06:16.856Z,100298.88
2022-12-12T16:08:51.326Z,100306.69
2022-12-12T16:11:39.783Z,100301.53
2022-12-12T16:14:26.873Z,100303.31
2022-12-12T16:16:59.818Z,100298.16
2022-12-12T16:19:39.652Z,100299.06
2022-12-12T16:22:10.970Z,100302.53
2022-12-12T16:24:50.000Z,100313.78
2022-12-12T16:27:19.919Z,100313.84
2022-12-12T16:29:52.479Z,100322.50
2022-12-12T16:32:23.075Z,100322.53
2022-12-12T16:34:54.246Z,100321.69
2022-12-12T16:37:24.104Z,100338.13
2022-12-12T16:39:53.644Z,100325.16
2022-12-12T16:42:24.169Z,100332.09
2022-12-12T16:44:56.407Z,100322.59
2022-12-12T16:47:27.094Z,100323.44
2022-12-12T16:49:56.669Z,100320.00
2022-12-12T16:52:26.247Z,100326.94
2022-12-12T16:54:56.173Z,100325.19
2022-12-12T16:57:25.810Z,100336.44
2022-12-12T16:59:57.947Z,100333.84
2022-12-12T17:02:27.964Z,100332.13
2022-12-12T17:04:57.499Z,100320.91
2022-12-12T17:07:27.109Z,100322.59
2022-12-12T17:09:56.692Z,100323.47
2022-12-12T17:12:26.333Z,100324.34
2022-12-12T17:14:58.561Z,100323.50
2022-12-12T17:17:28.210Z,100320.91
2022-12-12T17:19:57.841Z,100315.72
2022-12-12T17:22:27.403Z,100313.19
2022-12-12T17:24:57.009Z,100316.59
2022-12-12T17:27:26.617Z,100316.59
2022-12-12T17:29:58.911Z,100311.47
2022-12-12T17:32:30.241Z,100314.06
2022-12-12T17:34:59.910Z,100322.72
2022-12-12T17:37:29.598Z,100316.69
2022-12-12T17:39:59.292Z,100324.44
2022-12-12T17:42:32.388Z,100320.97
2022-12-12T17:45:04.971Z,100320.13
2022-12-12T17:47:34.776Z,100324.44
2022-12-12T17:50:04.491Z,100324.44
2022-12-12T17:52:34.152Z,100323.59
2022-12-12T17:55:54.972Z,100315.81
2022-12-12T17:57:53.439Z,100327.03
2022-12-12T18:00:25.960Z,100319.28
2022-12-12T18:02:55.610Z,100321.88
2022-12-12T18:05:25.182Z,100321.00
2022-12-12T18:07:54.825Z,100318.44
2022-12-12T18:10:24.449Z,100310.66
2022-12-12T18:12:54.174Z,100312.38
2022-12-12T18:15:26.434Z,100311.53
2022-12-12T18:17:56.085Z,100316.69
2022-12-12T18:20:31.022Z,100321.00
2022-12-12T18:23:01.020Z,100321.88
2022-12-12T18:25:30.741Z,100312.38
2022-12-12T18:28:00.299Z,100314.97
2022-12-12T18:30:33.014Z,100314.09
2022-12-12T18:33:03.353Z,100308.03
2022-12-12T18:35:33.051Z,100309.78
2022-12-12T18:38:03.059Z,100311.50
2022-12-12T18:40:32.753Z,100306.31
2022-12-12T18:43:02.291Z,100306.31
2022-12-12T18:45:34.587Z,100308.03
2022-12-12T18:48:04.310Z,100309.72
2022-12-12T18:50:35.575Z,100310.59
2022-12-12T18:53:06.175Z,100309.75
2022-12-12T18:55:35.792Z,100321.81
2022-12-12T18:58:05.412Z,100324.41
2022-12-12T19:00:40.339Z,100314.88
2022-12-12T19:03:10.355Z,100312.31
2022-12-12T19:05:43.265Z,100307.97
2022-12-12T19:08:14.575Z,100314.00
2022-12-12T19:10:46.510Z,100314.88
2022-12-12T19:13:16.554Z,100307.97
2022-12-12T19:15:48.665Z,100307.94
2022-12-12T19:18:18.266Z,100304.47
2022-12-12T19:20:48.185Z,100304.50
2022-12-12T19:23:17.775Z,100300.19
2022-12-12T19:25:47.356Z,100301.88
2022-12-12T19:28:17.032Z,100303.59
2022-12-12T19:30:49.284Z,100300.97
2022-12-12T19:33:18.902Z,100302.72
2022-12-12T19:35:48.473Z,100299.25
2022-12-12T19:38:24.118Z,100300.94
2022-12-12T19:40:54.388Z,100294.94
2022-12-12T19:43:24.044Z,100305.25
2022-12-12T19:46:04.429Z,100289.75
2022-12-12T19:48:34.175Z,100299.19
2022-12-12T19:51:09.007Z,100306.94
2022-12-12T19:53:40.222Z,100302.63
2022-12-12T19:56:10.401Z,100303.47
2022-12-12T19:58:40.006Z,100299.16
2022-12-12T20:01:15.930Z,100306.91
2022-12-12T20:03:45.594Z,100306.88
2022-12-12T20:06:15.321Z,100308.59
2022-12-12T20:08:44.935Z,100308.53
2022-12-12T20:11:16.891Z,100312.84
2022-12-12T20:13:50.695Z,100308.53
2022-12-12T20:16:24.856Z,100309.34
2022-12-12T20:18:54.890Z,100306.78
2022-12-12T20:24:17.753Z,100298.13
2022-12-12T20:26:47.894Z,100301.53
2022-12-12T20:29:18.044Z,100306.69
2022-12-12T20:31:51.155Z,100303.25
2022-12-12T20:34:22.602Z,100306.63
2022-12-12T20:36:52.375Z,100308.34
2022-12-12T20:39:22.574Z,100319.53
2022-12-12T20:41:53.598Z,100319.53
2022-12-12T20:44:24.215Z,100326.41
2022-12-12T20:46:56.597Z,100331.50
2022-12-12T20:49:28.735Z,100330.69
2022-12-12T20:51:59.316Z,100327.22
2022-12-12T20:54:30.176Z,100322.03
2022-12-12T20:57:01.157Z,100327.19
2022-12-12T20:59:31.080Z,100329.78
2022-12-12T21:02:03.475Z,100326.28
2022-12-12T21:04:33.128Z,100334.88
2022-12-12T21:07:02.748Z,100337.47
2022-12-12T21:09:32.411Z,100337.47
2022-12-12T21:12:02.140Z,100327.16
2022-12-12T21:14:35.013Z,100327.13
2022-12-12T21:17:07.634Z,100336.56
2022-12-12T21:19:37.310Z,100332.22
2022-12-12T21:22:08.335Z,100329.63
2022-12-12T21:24:38.021Z,100327.00
2022-12-12T21:27:08.351Z,100329.53
2022-12-12T21:29:37.997Z,100334.69
2022-12-12T21:32:10.218Z,100339.84
2022-12-12T21:34:41.487Z,100330.38
2022-12-12T21:37:13.036Z,100340.69
2022-12-12T21:39:42.678Z,100330.38
2022-12-12T21:42:12.304Z,100336.34
2022-12-12T21:44:45.721Z,100328.59
2022-12-12T21:47:18.355Z,100332.03
2022-12-12T21:49:48.009Z,100331.97
2022-12-12T21:52:17.563Z,100324.22
2022-12-12T21:54:47.989Z,100325.09
2022-12-12T21:57:21.878Z,100323.31
2022-12-12T21:59:54.177Z,100319.84
2022-12-12T22:02:27.470Z,100324.13
2022-12-12T22:04:57.210Z,100323.28
2022-12-12T22:07:26.835Z,100326.66
2022-12-12T22:10:10.373Z,100333.53
2022-12-12T22:12:41.256Z,100332.72
2022-12-12T22:15:12.111Z,100335.25
2022-12-12T22:17:44.538Z,100330.94
2022-12-12T22:20:14.747Z,100325.72
2022-12-12T22:22:44.319Z,100323.16
2022-12-12T22:25:14.114Z,100325.69
2022-12-12T22:27:43.885Z,100323.97
2022-12-12T22:30:14.790Z,100325.63
2022-12-12T22:32:47.387Z,100328.19
2022-12-12T22:35:17.124Z,100329.91
2022-12-12T22:37:46.656Z,100324.75
2022-12-12T22:40:16.257Z,100317.84
2022-12-12T22:42:45.820Z,100328.13
2022-12-12T22:45:15.794Z,100326.41
2022-12-12T22:47:48.277Z,100331.53
2022-12-12T22:50:17.973Z,100334.06
2022-12-12T22:52:48.340Z,100322.88
2022-12-12T22:55:18.445Z,100331.44
2022-12-12T22:57:49.023Z,100331.44
2022-12-12T23:00:20.368Z,100325.34
2022-12-12T23:02:52.533Z,100323.63
2022-12-12T23:05:23.694Z,100318.41
2022-12-12T23:07:53.640Z,100322.72
2022-12-12T23:10:23.289Z,100323.56
2022-12-12T23:12:52.919Z,100309.81
2022-12-12T23:15:22.554Z,100312.38
2022-12-12T23:17:54.938Z,100319.19
2022-12-12T23:20:24.625Z,100308.88
2022-12-12T23:22:54.183Z,100306.28
2022-12-12T23:25:23.755Z,100301.09
2022-12-12T23:27:53.347Z,100302.75
2022-12-12T23:30:22.991Z,100307.88
2022-12-12T23:32:55.217Z,100304.41
2022-12-12T23:35:25.035Z,100301.81
2022-12-12T23:37:54.610Z,100304.38
2022-12-12T23:40:24.276Z,100304.38
2022-12-12T23:42:53.990Z,100299.19
2022-12-12T23:45:23.573Z,100296.56
2022-12-12T23:47:55.763Z,100296.56
2022-12-12T23:50:25.571Z,100297.41
2022-12-12T23:52:55.156Z,100289.66
2022-12-12T23:55:24.985Z,100288.75
2022-12-12T23:57:54.532Z,100300.78
